createdAt,value
2023-01-07T00:01:10.316Z,6.90
2023-01-07T00:03:37.088Z,6.88
2023-01-07T00:06:10.720Z,6.84
2023-01-07T00:08:37.874Z,6.81
2023-01-07T00:11:05.068Z,6.78
2023-01-07T00:13:31.599Z,6.76
2023-01-07T00:15:58.596Z,6.81
2023-01-07T00:18:24.917Z,6.84
2023-01-07T00:20:51.201Z,6.74
2023-01-07T00:23:17.606Z,6.78
2023-01-07T00:25:43.863Z,6.63
2023-01-07T00:28:10.123Z,6.58
2023-01-07T00:30:36.414Z,6.56
2023-01-07T00:33:04.307Z,6.52
2023-01-07T00:35:31.580Z,6.51
2023-01-07T00:37:58.009Z,6.54
2023-01-07T00:40:24.358Z,6.58
2023-01-07T00:43:01.646Z,6.58
2023-01-07T00:45:29.886Z,6.60
2023-01-07T00:47:57.063Z,6.67
2023-01-07T00:50:24.241Z,6.65
2023-01-07T00:52:50.742Z,6.64
2023-01-07T00:55:17.282Z,6.66
2023-01-07T00:57:43.879Z,6.69
2023-01-07T01:00:11.279Z,6.72
2023-01-07T01:02:37.725Z,6.68
2023-01-07T01:05:04.500Z,6.70
2023-01-07T01:07:30.850Z,6.72
2023-01-07T01:09:57.320Z,6.78
2023-01-07T01:12:23.608Z,6.83
2023-01-07T01:14:56.468Z,6.90
2023-01-07T01:17:25.623Z,6.89
2023-01-07T01:19:52.280Z,6.97
2023-01-07T01:22:19.153Z,7.01
2023-01-07T01:24:45.751Z,6.89
2023-01-07T01:27:15.182Z,6.90
2023-01-07T01:29:47.333Z,6.86
2023-01-07T01:32:13.915Z,6.86
2023-01-07T01:34:43.868Z,6.91
2023-01-07T01:37:10.785Z,6.95
2023-01-07T01:39:37.626Z,6.95
2023-01-07T01:42:04.526Z,6.96
2023-01-07T01:44:38.865Z,6.93
2023-01-07T01:47:07.408Z,7.02
2023-01-07T01:49:39.171Z,6.97
2023-01-07T01:52:09.331Z,6.95
2023-01-07T01:54:35.820Z,6.97
2023-01-07T01:57:04.877Z,6.92
2023-01-07T01:59:33.493Z,6.96
2023-01-07T02:02:00.260Z,6.97
2023-01-07T02:04:30.140Z,6.97
2023-01-07T02:07:02.946Z,6.97
2023-01-07T02:09:29.784Z,6.96
2023-01-07T02:12:02.450Z,6.97
2023-01-07T02:14:47.217Z,6.99
2023-01-07T02:17:16.556Z,7.08
2023-01-07T02:19:42.882Z,7.06
2023-01-07T02:22:19.001Z,7.03
2023-01-07T02:25:04.116Z,7.06
2023-01-07T02:27:38.758Z,7.11
2023-01-07T02:30:08.065Z,7.08
2023-01-07T02:32:40.825Z,7.07
2023-01-07T02:35:26.248Z,7.06
2023-01-07T02:37:52.978Z,7.16
2023-01-07T02:40:22.672Z,7.17
2023-01-07T02:42:51.812Z,7.24
2023-01-07T02:45:28.850Z,7.19
2023-01-07T02:47:57.968Z,7.13
2023-01-07T02:50:24.296Z,7.11
2023-01-07T02:52:50.961Z,7.08
2023-01-07T02:55:39.562Z,7.07
2023-01-07T02:58:34.661Z,7.17
2023-01-07T03:01:27.802Z,7.16
2023-01-07T03:03:54.877Z,7.19
2023-01-07T03:06:21.801Z,7.17
2023-01-07T03:08:48.110Z,7.22
2023-01-07T03:11:14.996Z,7.17
2023-01-07T03:13:44.898Z,7.15
2023-01-07T03:16:20.885Z,7.15
2023-01-07T03:18:50.276Z,7.15
2023-01-07T03:21:18.127Z,7.14
2023-01-07T03:23:47.831Z,7.12
2023-01-07T03:26:15.795Z,7.11
2023-01-07T03:28:43.089Z,7.12
2023-01-07T03:31:12.087Z,7.10
2023-01-07T03:33:46.056Z,7.10
2023-01-07T03:36:15.590Z,7.11
2023-01-07T03:38:43.457Z,7.11
2023-01-07T03:41:10.099Z,7.12
2023-01-07T03:43:36.780Z,7.12
2023-01-07T03:46:03.451Z,7.10
2023-01-07T03:48:29.884Z,7.13
2023-01-07T03:50:56.303Z,7.13
2023-01-07T03:53:23.048Z,7.15
2023-01-07T03:55:49.913Z,7.18
2023-01-07T03:58:16.730Z,7.22
2023-01-07T04:00:43.589Z,7.17
2023-01-07T04:03:13.456Z,7.15
2023-01-07T04:05:39.898Z,7.12
2023-01-07T04:08:08.351Z,7.12
2023-01-07T04:10:37.698Z,7.13
2023-01-07T04:13:04.263Z,7.20
2023-01-07T04:15:31.105Z,7.24
2023-01-07T04:17:57.902Z,7.21
2023-01-07T04:20:25.189Z,7.18
2023-01-07T04:22:52.185Z,7.32
2023-01-07T04:25:21.775Z,7.33
2023-01-07T04:27:48.413Z,7.28
2023-01-07T04:30:15.205Z,7.28
2023-01-07T04:32:42.125Z,7.37
2023-01-07T04:35:12.163Z,7.33
2023-01-07T04:37:41.604Z,7.33
2023-01-07T04:40:08.344Z,7.33
2023-01-07T04:42:35.972Z,7.32
2023-01-07T04:45:02.650Z,7.29
2023-01-07T04:47:29.581Z,7.28
2023-01-07T04:49:56.301Z,7.37
2023-01-07T04:52:22.649Z,7.28
2023-01-07T04:54:49.133Z,7.24
2023-01-07T04:57:15.465Z,7.30
2023-01-07T04:59:41.924Z,7.23
2023-01-07T05:02:08.331Z,7.23
2023-01-07T05:04:34.793Z,7.19
2023-01-07T05:07:01.467Z,7.10
2023-01-07T05:09:27.836Z,7.17
2023-01-07T05:11:54.216Z,7.17
2023-01-07T05:14:20.648Z,7.13
2023-01-07T05:16:47.123Z,7.15
2023-01-07T05:19:13.694Z,7.13
2023-01-07T05:21:40.172Z,7.13
2023-01-07T05:24:06.802Z,7.14
2023-01-07T05:26:33.277Z,7.08
2023-01-07T05:28:59.995Z,7.08
2023-01-07T05:31:26.702Z,7.15
2023-01-07T05:33:53.019Z,7.11
2023-01-07T05:36:19.282Z,7.07
2023-01-07T05:38:45.900Z,7.13
2023-01-07T05:41:13.106Z,7.08
2023-01-07T05:43:39.675Z,7.09
2023-01-07T05:46:06.580Z,7.08
2023-01-07T05:48:32.897Z,7.04
2023-01-07T05:50:59.180Z,7.03
2023-01-07T05:53:25.502Z,7.03
2023-01-07T05:55:58.615Z,7.03
2023-01-07T05:58:24.939Z,7.13
2023-01-07T06:00:51.451Z,7.16
2023-01-07T06:03:17.783Z,7.18
2023-01-07T06:05:44.163Z,7.22
2023-01-07T06:08:10.475Z,7.20
2023-01-07T06:10:36.821Z,7.28
2023-01-07T06:13:03.143Z,7.13
2023-01-07T06:15:29.494Z,7.08
2023-01-07T06:17:55.821Z,7.03
2023-01-07T06:20:22.130Z,7.05
2023-01-07T06:22:48.425Z,7.02
2023-01-07T06:25:14.808Z,6.96
2023-01-07T06:27:41.539Z,6.98
2023-01-07T06:30:08.532Z,7.02
2023-01-07T06:32:42.161Z,6.99
2023-01-07T06:35:10.282Z,6.96
2023-01-07T06:37:37.099Z,6.95
2023-01-07T06:40:03.860Z,6.94
2023-01-07T06:42:30.167Z,6.98
2023-01-07T06:44:56.539Z,6.93
2023-01-07T06:47:22.854Z,6.92
2023-01-07T06:49:49.104Z,6.98
2023-01-07T06:52:15.359Z,7.00
2023-01-07T06:54:41.755Z,7.06
2023-01-07T06:57:08.032Z,7.01
2023-01-07T06:59:34.330Z,7.00
2023-01-07T07:02:00.687Z,6.96
2023-01-07T07:04:27.035Z,6.91
2023-01-07T07:06:53.316Z,7.00
2023-01-07T07:09:19.673Z,7.03
2023-01-07T07:11:46.041Z,7.13
2023-01-07T07:14:12.537Z,7.01
2023-01-07T07:16:38.939Z,7.04
2023-01-07T07:19:05.305Z,6.98
2023-01-07T07:21:31.888Z,6.96
2023-01-07T07:23:58.387Z,6.99
2023-01-07T07:26:24.705Z,7.00
2023-01-07T07:28:51.141Z,7.20
2023-01-07T07:31:17.505Z,7.22
2023-01-07T07:33:43.992Z,7.11
2023-01-07T07:36:11.491Z,7.06
2023-01-07T07:38:37.870Z,7.17
2023-01-07T07:41:04.302Z,7.10
2023-01-07T07:43:30.872Z,7.02
2023-01-07T07:45:57.897Z,7.00
2023-01-07T07:48:24.174Z,6.91
2023-01-07T07:50:51.503Z,7.02
2023-01-07T07:53:18.579Z,6.92
2023-01-07T07:55:44.877Z,7.05
2023-01-07T07:58:11.159Z,6.92
2023-01-07T08:00:37.818Z,6.85
2023-01-07T08:03:04.825Z,6.83
2023-01-07T08:05:31.887Z,6.85
2023-01-07T08:07:59.091Z,6.88
2023-01-07T08:10:29.077Z,6.95
2023-01-07T08:12:55.996Z,6.99
2023-01-07T08:15:22.530Z,6.95
2023-01-07T08:17:56.260Z,6.81
2023-01-07T08:20:22.774Z,6.85
2023-01-07T08:22:49.132Z,6.80
2023-01-07T08:25:15.746Z,6.86
2023-01-07T08:27:42.406Z,6.82
2023-01-07T08:30:09.085Z,6.72
2023-01-07T08:32:36.369Z,6.72
2023-01-07T08:35:03.065Z,6.88
2023-01-07T08:37:29.823Z,6.68
2023-01-07T08:39:56.163Z,6.75
2023-01-07T08:42:22.478Z,6.90
2023-01-07T08:44:48.761Z,6.96
2023-01-07T08:47:15.046Z,6.89
2023-01-07T08:49:41.441Z,6.79
2023-01-07T08:52:09.478Z,6.55
2023-01-07T08:54:35.844Z,6.78
2023-01-07T08:57:02.127Z,6.83
2023-01-07T08:59:28.457Z,6.67
2023-01-07T09:01:54.792Z,6.74
2023-01-07T09:04:21.210Z,6.91
2023-01-07T09:06:47.510Z,6.85
2023-01-07T09:09:16.498Z,6.91
2023-01-07T09:11:43.207Z,6.98
2023-01-07T09:14:09.524Z,7.11
2023-01-07T09:16:35.981Z,7.06
2023-01-07T09:19:02.481Z,7.09
2023-01-07T09:21:29.118Z,7.18
2023-01-07T09:23:55.664Z,7.22
2023-01-07T09:26:22.688Z,7.22
2023-01-07T09:28:49.077Z,7.37
2023-01-07T09:31:15.885Z,7.20
2023-01-07T09:33:42.838Z,7.23
2023-01-07T09:36:09.419Z,7.34
2023-01-07T09:38:36.542Z,7.37
2023-01-07T09:41:03.133Z,7.26
2023-01-07T09:44:01.028Z,7.27
2023-01-07T09:46:25.941Z,7.29
2023-01-07T09:48:57.817Z,7.33
2023-01-07T09:51:36.968Z,7.54
2023-01-07T09:54:05.345Z,7.50
2023-01-07T09:56:33.148Z,7.53
2023-01-07T09:59:01.224Z,7.54
2023-01-07T10:01:27.812Z,7.71
2023-01-07T10:04:00.558Z,7.67
2023-01-07T10:06:43.121Z,7.80
2023-01-07T10:09:20.960Z,7.89
2023-01-07T10:12:03.583Z,7.89
2023-01-07T10:14:30.202Z,7.94
2023-01-07T10:17:16.251Z,7.94
2023-01-07T10:19:50.511Z,8.03
2023-01-07T10:22:23.006Z,8.07
2023-01-07T10:24:53.048Z,8.31
2023-01-07T10:27:24.985Z,8.18
2023-01-07T10:29:55.023Z,8.29
2023-01-07T10:32:22.437Z,8.38
2023-01-07T10:34:50.270Z,8.44
2023-01-07T10:37:16.571Z,8.47
2023-01-07T10:39:57.784Z,8.45
2023-01-07T10:42:27.037Z,8.45
2023-01-07T10:44:56.439Z,8.52
2023-01-07T10:47:40.928Z,8.65
2023-01-07T10:50:28.325Z,8.85
2023-01-07T10:53:13.621Z,9.22
2023-01-07T10:55:46.252Z,9.70
2023-01-07T10:58:13.074Z,10.00
2023-01-07T11:00:39.829Z,10.28
2023-01-07T11:03:13.040Z,10.66
2023-01-07T11:05:39.368Z,10.96
2023-01-07T11:08:11.420Z,10.86
2023-01-07T11:10:37.991Z,11.06
2023-01-07T11:13:15.330Z,11.40
2023-01-07T11:15:52.062Z,11.79
2023-01-07T11:18:23.861Z,12.14
2023-01-07T11:20:51.097Z,12.37
2023-01-07T11:23:37.178Z,11.95
2023-01-07T11:26:09.870Z,12.10
2023-01-07T11:28:37.118Z,12.46
2023-01-07T11:31:03.617Z,12.38
2023-01-07T11:34:03.010Z,11.65
2023-01-07T11:36:20.187Z,11.54
2023-01-07T11:38:47.371Z,11.69
2023-01-07T11:41:21.875Z,11.80
2023-01-07T11:43:49.563Z,11.75
2023-01-07T11:46:19.840Z,11.14
2023-01-07T11:48:49.921Z,10.72
2023-01-07T11:51:16.551Z,10.30
2023-01-07T11:53:47.003Z,10.19
2023-01-07T11:56:21.999Z,10.01
2023-01-07T11:58:49.513Z,9.86
2023-01-07T12:01:17.830Z,9.95
2023-01-07T12:03:53.226Z,9.83
2023-01-07T12:06:27.086Z,9.94
2023-01-07T12:09:02.756Z,9.83
2023-01-07T12:11:33.283Z,9.72
2023-01-07T12:14:03.019Z,9.70
2023-01-07T12:16:29.436Z,9.54
2023-01-07T12:19:05.425Z,9.51
2023-01-07T12:21:34.895Z,9.44
2023-01-07T12:24:04.281Z,9.32
2023-01-07T12:26:33.779Z,9.22
2023-01-07T12:29:15.170Z,9.29
2023-01-07T12:32:00.402Z,9.23
2023-01-07T12:34:26.872Z,9.30
2023-01-07T12:37:01.666Z,9.17
2023-01-07T12:39:34.618Z,9.15
2023-01-07T12:42:04.297Z,9.16
2023-01-07T12:44:30.994Z,9.19
2023-01-07T12:47:32.569Z,9.18
2023-01-07T12:50:00.193Z,9.04
2023-01-07T12:52:38.418Z,9.00
2023-01-07T12:55:22.208Z,9.11
2023-01-07T12:58:10.061Z,9.16
2023-01-07T13:00:40.765Z,9.11
2023-01-07T13:03:17.658Z,9.15
2023-01-07T13:05:48.397Z,9.18
2023-01-07T13:08:20.486Z,9.00
2023-01-07T13:10:49.416Z,9.05
2023-01-07T13:13:20.477Z,9.10
2023-01-07T13:15:48.071Z,9.06
2023-01-07T13:18:18.264Z,9.00
2023-01-07T13:21:03.412Z,9.03
2023-01-07T13:23:36.129Z,9.04
2023-01-07T13:26:20.628Z,9.02
2023-01-07T13:29:05.550Z,9.07
2023-01-07T13:31:34.852Z,9.07
2023-01-07T13:34:10.992Z,9.07
2023-01-07T13:36:51.005Z,9.04
2023-01-07T13:39:30.440Z,9.04
2023-01-07T13:42:18.202Z,9.09
2023-01-07T13:45:04.784Z,9.10
2023-01-07T13:47:45.486Z,9.11
2023-01-07T13:50:23.490Z,9.09
2023-01-07T13:53:07.848Z,9.05
2023-01-07T13:55:35.879Z,9.05
2023-01-07T13:58:05.095Z,8.96
2023-01-07T14:00:39.728Z,9.03
2023-01-07T14:03:26.072Z,9.01
2023-01-07T14:06:12.630Z,8.95
2023-01-07T14:08:38.916Z,8.90
2023-01-07T14:11:05.261Z,8.83
2023-01-07T14:13:36.904Z,8.70
2023-01-07T14:16:03.267Z,8.68
2023-01-07T14:18:32.797Z,8.57
2023-01-07T14:21:06.840Z,8.56
2023-01-07T14:23:38.737Z,8.59
2023-01-07T14:26:17.331Z,8.52
2023-01-07T14:29:06.005Z,8.47
2023-01-07T14:31:32.554Z,8.39
2023-01-07T14:34:03.973Z,8.37
2023-01-07T14:36:48.786Z,8.33
2023-01-07T14:39:31.871Z,8.30
2023-01-07T14:42:16.860Z,8.22
2023-01-07T14:44:43.328Z,8.13
2023-01-07T14:47:13.049Z,8.15
2023-01-07T14:49:50.062Z,8.09
2023-01-07T14:52:34.754Z,8.03
2023-01-07T14:55:07.081Z,8.00
2023-01-07T14:57:45.397Z,8.03
2023-01-07T15:00:29.900Z,7.98
2023-01-07T15:03:14.302Z,8.05
2023-01-07T15:05:49.796Z,7.93
2023-01-07T15:08:37.456Z,7.82
2023-01-07T15:11:23.367Z,7.86
2023-01-07T15:14:13.656Z,7.78
2023-01-07T15:16:40.229Z,7.80
2023-01-07T15:19:08.156Z,7.75
2023-01-07T15:21:47.625Z,7.75
2023-01-07T15:24:26.103Z,7.78
2023-01-07T15:27:14.832Z,7.64
2023-01-07T15:29:48.695Z,7.76
2023-01-07T15:32:14.960Z,7.84
2023-01-07T15:34:41.424Z,7.76
2023-01-07T15:37:08.655Z,7.67
2023-01-07T15:39:43.252Z,7.71
2023-01-07T15:42:16.605Z,7.72
2023-01-07T15:44:43.204Z,7.68
2023-01-07T15:47:28.110Z,7.58
2023-01-07T15:49:54.407Z,7.61
2023-01-07T15:52:23.410Z,7.62
2023-01-07T15:54:49.924Z,7.54
2023-01-07T15:57:26.121Z,7.52
2023-01-07T15:59:53.677Z,7.43
2023-01-07T16:02:29.516Z,7.40
2023-01-07T16:04:58.683Z,7.33
2023-01-07T16:07:30.365Z,7.38
2023-01-07T16:09:57.206Z,7.37
2023-01-07T16:12:39.134Z,7.32
2023-01-07T16:15:31.692Z,7.28
2023-01-07T16:18:05.977Z,7.34
2023-01-07T16:20:35.125Z,7.32
2023-01-07T16:23:08.747Z,7.24
2023-01-07T16:25:46.208Z,7.19
2023-01-07T16:28:18.498Z,7.13
2023-01-07T16:30:45.680Z,7.25
2023-01-07T16:33:14.243Z,7.23
2023-01-07T16:35:40.791Z,7.24
2023-01-07T16:38:15.398Z,7.20
2023-01-07T16:40:41.951Z,7.26
2023-01-07T16:43:26.910Z,7.09
2023-01-07T16:46:08.542Z,7.12
2023-01-07T16:48:34.806Z,7.10
2023-01-07T16:51:01.331Z,7.10
2023-01-07T16:53:28.738Z,7.02
2023-01-07T16:56:07.789Z,7.12
2023-01-07T16:58:34.260Z,7.15
2023-01-07T17:01:02.034Z,7.15
2023-01-07T17:03:29.554Z,7.11
2023-01-07T17:05:57.729Z,7.02
2023-01-07T17:08:24.223Z,6.99
2023-01-07T17:10:56.335Z,7.00
2023-01-07T17:13:22.603Z,6.93
2023-01-07T17:15:48.873Z,6.89
2023-01-07T17:18:15.133Z,6.87
2023-01-07T17:20:48.626Z,6.86
2023-01-07T17:23:27.508Z,6.91
2023-01-07T17:26:01.864Z,6.89
2023-01-07T17:28:29.064Z,6.90
2023-01-07T17:30:55.469Z,6.81
2023-01-07T17:33:23.223Z,6.72
2023-01-07T17:35:50.800Z,6.72
2023-01-07T17:38:17.580Z,6.73
2023-01-07T17:40:44.571Z,6.67
2023-01-07T17:43:36.762Z,6.71
2023-01-07T17:46:04.543Z,6.69
2023-01-07T17:48:31.631Z,6.68
2023-01-07T17:50:58.299Z,6.75
2023-01-07T17:53:29.765Z,6.64
2023-01-07T17:55:56.409Z,6.55
2023-01-07T17:58:30.183Z,6.53
2023-01-07T18:00:57.468Z,6.51
2023-01-07T18:03:24.551Z,6.48
2023-01-07T18:05:50.904Z,6.42
2023-01-07T18:08:17.377Z,6.39
2023-01-07T18:11:03.012Z,6.25
2023-01-07T18:13:29.915Z,6.28
2023-01-07T18:15:59.699Z,6.21
2023-01-07T18:18:28.473Z,6.21
2023-01-07T18:20:55.118Z,6.14
2023-01-07T18:23:21.800Z,6.10
2023-01-07T18:25:48.105Z,6.12
2023-01-07T18:28:14.557Z,6.02
2023-01-07T18:30:41.154Z,5.98
2023-01-07T18:33:08.122Z,5.96
2023-01-07T18:35:35.066Z,6.02
2023-01-07T18:38:01.599Z,6.08
2023-01-07T18:40:28.096Z,6.08
2023-01-07T18:42:54.936Z,6.12
2023-01-07T18:45:21.520Z,6.16
2023-01-07T18:47:47.943Z,6.08
2023-01-07T18:50:14.767Z,6.10
2023-01-07T18:52:41.655Z,6.02
2023-01-07T18:55:08.725Z,6.13
2023-01-07T18:57:35.235Z,6.16
2023-01-07T19:00:01.802Z,6.13
2023-01-07T19:02:28.136Z,6.05
2023-01-07T19:04:54.385Z,6.11
2023-01-07T19:07:21.787Z,6.11
2023-01-07T19:09:48.048Z,6.20
2023-01-07T19:12:14.456Z,6.09
2023-01-07T19:14:40.782Z,5.96
2023-01-07T19:17:07.776Z,5.86
2023-01-07T19:19:47.107Z,5.88
2023-01-07T19:22:15.812Z,5.84
2023-01-07T19:24:42.195Z,5.84
2023-01-07T19:27:08.542Z,5.84
2023-01-07T19:29:34.818Z,5.82
2023-01-07T19:32:01.217Z,5.71
2023-01-07T19:34:27.527Z,5.71
2023-01-07T19:36:53.906Z,5.65
2023-01-07T19:39:21.062Z,5.68
2023-01-07T19:41:47.873Z,5.62
2023-01-07T19:44:14.432Z,5.71
2023-01-07T19:46:41.151Z,5.78
2023-01-07T19:49:07.897Z,5.67
2023-01-07T19:51:35.522Z,5.62
2023-01-07T19:54:02.312Z,5.71
2023-01-07T19:56:30.827Z,5.58
2023-01-07T19:58:57.992Z,5.46
2023-01-07T20:01:26.497Z,5.39
2023-01-07T20:03:53.572Z,5.25
2023-01-07T20:06:21.913Z,5.18
2023-01-07T20:08:48.365Z,5.09
2023-01-07T20:11:15.013Z,4.98
2023-01-07T20:13:41.614Z,4.90
2023-01-07T20:16:09.147Z,4.80
2023-01-07T20:18:39.631Z,4.69
2023-01-07T20:21:06.249Z,4.60
2023-01-07T20:23:34.487Z,4.58
2023-01-07T20:26:01.952Z,4.54
2023-01-07T20:28:28.662Z,4.55
2023-01-07T20:30:54.933Z,4.60
2023-01-07T20:33:21.199Z,4.78
2023-01-07T20:35:47.773Z,4.78
2023-01-07T20:38:14.124Z,4.84
2023-01-07T20:40:40.895Z,4.89
2023-01-07T20:43:07.797Z,4.81
2023-01-07T20:45:37.367Z,4.90
2023-01-07T20:48:04.404Z,5.07
2023-01-07T20:50:31.989Z,5.16
2023-01-07T20:52:58.315Z,5.21
2023-01-07T20:55:24.714Z,5.28
2023-01-07T20:57:51.098Z,5.33
2023-01-07T21:00:17.421Z,5.38
2023-01-07T21:02:43.791Z,5.33
2023-01-07T21:05:10.412Z,5.38
2023-01-07T21:07:36.691Z,5.44
2023-01-07T21:10:03.250Z,5.38
2023-01-07T21:12:29.608Z,5.46
2023-01-07T21:14:55.880Z,5.43
2023-01-07T21:17:22.158Z,5.47
2023-01-07T21:19:48.462Z,5.52
2023-01-07T21:22:15.732Z,5.45
2023-01-07T21:24:42.158Z,5.44
2023-01-07T21:27:08.448Z,5.41
2023-01-07T21:29:34.712Z,5.37
2023-01-07T21:32:02.849Z,5.39
2023-01-07T21:34:29.225Z,5.43
2023-01-07T21:36:55.518Z,5.40
2023-01-07T21:39:21.950Z,5.30
2023-01-07T21:41:48.207Z,5.34
2023-01-07T21:44:14.703Z,5.39
2023-01-07T21:46:41.087Z,5.31
2023-01-07T21:49:08.200Z,5.32
2023-01-07T21:51:34.511Z,5.33
2023-01-07T21:54:00.767Z,5.34
2023-01-07T21:56:28.616Z,5.33
2023-01-07T21:58:54.876Z,5.36
2023-01-07T22:01:21.544Z,5.33
2023-01-07T22:03:48.825Z,5.27
2023-01-07T22:06:20.053Z,5.28
2023-01-07T22:08:46.717Z,5.24
2023-01-07T22:11:13.843Z,5.25
2023-01-07T22:13:40.278Z,5.29
2023-01-07T22:16:06.816Z,5.22
2023-01-07T22:18:33.151Z,5.25
2023-01-07T22:20:59.459Z,5.25
2023-01-07T22:23:25.720Z,5.17
2023-01-07T22:25:52.067Z,5.18
2023-01-07T22:28:19.295Z,5.15
2023-01-07T22:30:48.864Z,5.13
2023-01-07T22:33:15.300Z,5.12
2023-01-07T22:35:41.735Z,5.12
2023-01-07T22:38:08.271Z,5.08
2023-01-07T22:40:36.457Z,5.11
2023-01-07T22:43:07.898Z,5.09
2023-01-07T22:45:42.404Z,5.10
2023-01-07T22:48:10.744Z,5.08
2023-01-07T22:50:37.139Z,5.03
2023-01-07T22:55:33.747Z,5.06
2023-01-07T22:58:00.590Z,5.09
2023-01-07T23:00:39.986Z,5.07
2023-01-07T23:03:06.704Z,5.05
2023-01-07T23:05:34.853Z,5.10
2023-01-07T23:08:01.101Z,5.07
2023-01-07T23:10:27.363Z,5.11
2023-01-07T23:12:53.679Z,5.14
2023-01-07T23:15:19.964Z,5.10
2023-01-07T23:17:46.208Z,5.15
2023-01-07T23:20:12.514Z,5.16
2023-01-07T23:22:38.782Z,5.12
2023-01-07T23:25:05.358Z,5.13
2023-01-07T23:27:31.603Z,5.09
2023-01-07T23:29:58.652Z,5.07
2023-01-07T23:32:25.180Z,5.04
2023-01-07T23:34:51.658Z,5.01
2023-01-07T23:37:17.916Z,5.04
2023-01-07T23:39:44.220Z,5.01
2023-01-07T23:42:10.485Z,5.04
2023-01-07T23:44:36.789Z,4.96
2023-01-07T23:47:03.355Z,4.96
2023-01-07T23:49:29.812Z,4.87
2023-01-07T23:51:56.084Z,4.89
2023-01-07T23:54:23.863Z,4.87
2023-01-07T23:56:50.613Z,4.87
2023-01-07T23:59:17.274Z,4.78
